Wetterdaten für den Flughafen Lübeck Blankensee


ADDS - METARS form results Aviation Digital Data Service (ADDS) Output produced by METARs form (1933 UTC 16 October 2019)
found at http://www.aviationweather.gov/metar/data/
 
EDHL 161850Z VRB02KT CAVOK 11/10 Q1009
TAF EDHL 161700Z 1618/1621 20004KT 9999 SCT030

Nord: Hamburg, Lübeck
Ost: Schwerin, Rostock
Süd: Hannover
West: Bremen, Nordhloz

 

Copyright © 2016 Flugschule Hohensee